createdAt,value
2018-07-04T05:04:34.042Z,95258.34
2018-07-04T05:09:55.197Z,95269.61
2018-07-04T05:15:16.281Z,95273.59
2018-07-04T05:20:43.273Z,95281.61
2018-07-04T05:26:05.143Z,95291.37
2018-07-04T05:31:26.368Z,95287.98
2018-07-04T05:36:48.292Z,95287.45
2018-07-04T05:42:09.987Z,95294.19
2018-07-04T05:47:31.055Z,95289.47
2018-07-04T05:52:52.305Z,95287.04
2018-07-04T05:58:13.322Z,95293.23
2018-07-04T06:03:34.544Z,95290.05
2018-07-04T06:08:55.865Z,95292.91
2018-07-04T06:14:16.791Z,95298.22
2018-07-04T06:19:37.877Z,95300.88
2018-07-04T06:24:59.103Z,95297.47
2018-07-04T06:30:20.178Z,95304.75
2018-07-04T06:35:41.401Z,95305.87
2018-07-04T06:40:43.947Z,95300.87
2018-07-04T06:45:46.497Z,95297.76
2018-07-04T06:50:49.054Z,95297.73
2018-07-04T06:55:51.619Z,95302.45
2018-07-04T07:00:54.938Z,95308.30
2018-07-04T07:06:17.008Z,95313.66
2018-07-04T07:11:38.071Z,95307.34
2018-07-04T07:16:59.139Z,95307.12
2018-07-04T07:22:21.118Z,95307.48
2018-07-04T07:27:42.214Z,95307.31
2018-07-04T07:33:04.031Z,95305.58
2018-07-04T07:38:25.331Z,95311.55
2018-07-04T07:43:46.581Z,95315.59
2018-07-04T07:49:07.523Z,95319.70
2018-07-04T07:54:28.832Z,95313.42
2018-07-04T07:59:49.823Z,95321.18
2018-07-04T08:05:11.670Z,95321.33
2018-07-04T08:10:33.515Z,95312.64
2018-07-04T08:15:55.235Z,95321.59
2018-07-04T08:21:16.306Z,95315.20
2018-07-04T08:26:37.375Z,95316.57
2018-07-04T08:31:58.706Z,95315.06
2018-07-04T08:37:19.695Z,95300.02
2018-07-04T08:42:40.819Z,95307.45
2018-07-04T08:48:02.547Z,95300.33
2018-07-04T08:53:24.371Z,95302.05
2018-07-04T08:58:45.430Z,95296.11
2018-07-04T09:04:07.292Z,95310.31
2018-07-04T09:09:28.630Z,95297.30
2018-07-04T09:14:49.747Z,95296.66
2018-07-04T09:20:11.435Z,95305.30
2018-07-04T09:25:32.664Z,95304.53
2018-07-04T09:30:53.762Z,95310.43
2018-07-04T09:36:14.855Z,95309.38
2018-07-04T09:41:36.466Z,95308.33
2018-07-04T09:46:58.126Z,95327.45
2018-07-04T09:52:19.789Z,95323.27
2018-07-04T09:57:43.711Z,95330.53
2018-07-04T10:03:04.810Z,95321.21
2018-07-04T10:08:25.914Z,95310.70
2018-07-04T10:13:47.186Z,95324.79
2018-07-04T10:19:09.042Z,95320.48
2018-07-04T10:24:30.313Z,95315.33
2018-07-04T10:29:51.646Z,95317.53
2018-07-04T10:35:12.874Z,95309.09
2018-07-04T10:40:33.938Z,95312.86
2018-07-04T10:45:55.036Z,95308.72
2018-07-04T10:51:16.116Z,95299.03
2018-07-04T10:56:37.962Z,95299.98
2018-07-04T11:01:59.926Z,95289.88
2018-07-04T11:07:21.773Z,95285.59
2018-07-04T11:12:42.947Z,95285.79
2018-07-04T11:18:03.968Z,95277.00
2018-07-04T11:23:25.050Z,95252.65
2018-07-04T11:28:46.873Z,95258.63
2018-07-04T11:34:07.831Z,95257.71
2018-07-04T11:39:29.005Z,95255.45
2018-07-04T11:44:50.047Z,95262.61
2018-07-04T11:49:52.719Z,95270.30
2018-07-04T11:54:55.248Z,95267.53
2018-07-04T11:59:57.786Z,95272.56
2018-07-04T12:05:19.242Z,95272.30
2018-07-04T12:10:21.769Z,95283.95
2018-07-04T12:15:24.307Z,95300.70
2018-07-04T12:20:26.846Z,95300.38
2018-07-04T12:25:29.391Z,95280.55
2018-07-04T12:30:32.114Z,95275.86
2018-07-04T12:35:34.683Z,95280.50
2018-07-04T12:40:37.471Z,95280.58
2018-07-04T12:45:39.990Z,95278.28
2018-07-04T12:50:42.638Z,95283.03
2018-07-04T12:56:03.778Z,95276.79
2018-07-04T13:01:25.472Z,95279.64
2018-07-04T13:06:46.675Z,95280.30
2018-07-04T13:12:07.647Z,95271.97
2018-07-04T13:17:28.816Z,95277.61
2018-07-04T13:22:50.667Z,95298.20
2018-07-04T13:28:12.514Z,95291.44
2018-07-04T13:33:34.461Z,95282.22
2018-07-04T13:38:56.407Z,95274.57
2018-07-04T13:44:18.241Z,95281.20
2018-07-04T13:49:39.312Z,95285.23
2018-07-04T13:55:01.115Z,95288.36
2018-07-04T14:00:23.238Z,95293.31
2018-07-04T14:05:44.864Z,95299.77
2018-07-04T14:11:05.941Z,95331.83
2018-07-04T14:16:27.931Z,95327.05
2018-07-04T14:21:49.023Z,95319.15
2018-07-04T14:27:11.126Z,95323.84
2018-07-04T14:32:32.246Z,95308.73
2018-07-04T14:37:53.287Z,95286.64
2018-07-04T14:43:14.512Z,95274.58
2018-07-04T14:48:35.532Z,95262.78
2018-07-04T14:53:56.632Z,95249.20
2018-07-04T14:59:18.357Z,95236.27
2018-07-04T15:04:39.433Z,95240.70
2018-07-04T15:10:00.548Z,95247.02
2018-07-04T15:15:21.914Z,95249.75
2018-07-04T15:20:42.988Z,95250.36
2018-07-04T15:26:04.963Z,95245.14
2018-07-04T15:31:26.050Z,95238.50
2018-07-04T15:36:47.194Z,95241.07
2018-07-04T15:42:08.479Z,95254.58
2018-07-04T15:47:29.571Z,95254.89
2018-07-04T15:52:51.414Z,95247.20
2018-07-04T15:58:13.223Z,95242.67
2018-07-04T16:03:34.290Z,95234.56
2018-07-04T16:08:56.086Z,95224.65
2018-07-04T16:14:17.155Z,95218.72
2018-07-04T16:19:39.004Z,95218.07
2018-07-04T16:25:00.851Z,95215.86
2018-07-04T16:30:22.919Z,95224.17
2018-07-04T16:35:44.035Z,95230.48
2018-07-04T16:41:05.882Z,95231.05
2018-07-04T16:46:27.870Z,95227.80
2018-07-04T16:51:48.951Z,95227.84
2018-07-04T16:57:10.935Z,95222.91
2018-07-04T17:02:32.003Z,95218.90
2018-07-04T17:07:53.099Z,95211.12
2018-07-04T17:13:14.189Z,95207.91
2018-07-04T17:18:36.039Z,95210.14
2018-07-04T17:23:57.883Z,95199.15
2018-07-04T17:29:21.702Z,95200.95
2018-07-04T17:34:42.838Z,95201.09
2018-07-04T17:40:03.823Z,95191.71
2018-07-04T17:45:25.024Z,95197.33
2018-07-04T17:50:46.255Z,95194.19
2018-07-04T17:56:07.563Z,95202.14
2018-07-04T18:01:28.738Z,95201.61
2018-07-04T18:06:49.816Z,95197.46
2018-07-04T18:12:10.840Z,95187.73
2018-07-04T18:17:31.947Z,95197.59
2018-07-04T18:22:53.101Z,95191.80
2018-07-04T18:28:14.211Z,95182.50
2018-07-04T18:33:36.042Z,95175.87
2018-07-04T18:38:57.183Z,95172.30
2018-07-04T18:44:18.525Z,95163.98
2018-07-04T18:49:43.141Z,95148.77
2018-07-04T18:55:04.376Z,95149.78
2018-07-04T19:00:26.225Z,95152.47
2018-07-04T19:05:47.675Z,95144.92
2018-07-04T19:11:09.007Z,95138.44
2018-07-04T19:16:30.146Z,95146.48
2018-07-04T19:21:51.569Z,95154.27
2018-07-04T19:27:12.895Z,95162.28
2018-07-04T19:32:34.465Z,95176.92
2018-07-04T19:37:55.742Z,95188.05
2018-07-04T19:43:16.824Z,95187.50
2018-07-04T19:48:38.627Z,95190.06
2018-07-04T19:54:00.364Z,95187.12
2018-07-04T19:59:21.411Z,95182.58
2018-07-04T20:04:43.250Z,95186.82
2018-07-04T20:10:04.377Z,95186.86
2018-07-04T20:15:26.267Z,95189.94
2018-07-04T20:20:49.564Z,95185.77
2018-07-04T20:26:10.747Z,95180.31
2018-07-04T20:31:32.852Z,95179.62
2018-07-04T20:36:54.089Z,95184.29
2018-07-04T20:42:15.182Z,95183.20
2018-07-04T20:47:36.425Z,95177.19
2018-07-04T20:52:58.218Z,95181.10
2018-07-04T20:58:19.200Z,95166.97
2018-07-04T21:03:40.300Z,95162.30
2018-07-04T21:09:01.418Z,95172.38
2018-07-04T21:14:23.343Z,95167.73
2018-07-04T21:19:44.466Z,95170.61
2018-07-04T21:25:05.502Z,95162.39
2018-07-04T21:30:26.657Z,95151.73
2018-07-04T21:35:47.777Z,95143.84
2018-07-04T21:41:09.650Z,95151.55
2018-07-04T21:46:30.714Z,95153.45
2018-07-04T21:51:51.759Z,95156.47
2018-07-04T21:57:12.810Z,95149.42
2018-07-04T22:02:34.658Z,95142.12
2018-07-04T22:07:56.505Z,95146.36
2018-07-04T22:13:17.623Z,95148.66
2018-07-04T22:18:38.661Z,95143.53
2018-07-04T22:24:00.635Z,95135.40
2018-07-04T22:29:21.958Z,95124.27
